Time;durP1;ratioP1;P1;durP2;ratioP2;P2;SDS_P1;SDS_P2;PMS_P1;PMS_P2;Temp;Humidity;BMP_temperature;BMP_pressure;BME280_temperature;BME280_humidity;BME280_pressure;Samples;Min_cycle;Max_cycle;Signal;HPM_P1;HPM_P2
2023/08/28 00:01:14;;;;;;;;;;;;;;;20.07;54.97;101037.41;4148294;28;20295;-67
2023/08/28 00:03:15;;;;;;;;;;;;;;;20.06;54.63;101041.91;4148613;28;20307;-67
2023/08/28 00:05:17;;;;;;;;;;;;;;;20.08;54.67;101041.78;4148408;28;19975;-67
2023/08/28 00:07:18;;;;;;;;;;;;;;;20.07;54.54;101042.75;4147379;28;19948;-67
2023/08/28 00:09:20;;;;;;;;;;;;;;;20.07;54.81;101037.41;4148094;28;20375;-67
2023/08/28 00:11:21;;;;;;;;;;;;;;;20.08;54.92;101041.78;4148208;28;19932;-67
2023/08/28 00:13:23;;;;;;;;;;;;;;;20.06;54.70;101039.22;4148131;28;20354;-67
2023/08/28 00:15:24;;;;;;;;;;;;;;;20.06;55.01;101041.91;4147280;28;19969;-67
2023/08/28 00:17:27;;;;;;;;;;;;;;;20.06;54.92;101038.34;4145970;28;19926;-67
2023/08/28 00:19:28;;;;;;;;;;;;;;;20.04;54.72;101034.97;4148476;28;19925;-67
2023/08/28 00:21:30;;;;;;;;;;;;;;;20.05;54.72;101037.50;4148283;28;20318;-67
2023/08/28 00:23:32;;;;;;;;;;;;;;;20.04;54.89;101033.13;4148234;28;19925;-67
2023/08/28 00:25:33;;;;;;;;;;;;;;;20.06;54.82;101035.69;4148336;28;20035;-67
2023/08/28 00:27:35;;;;;;;;;;;;;;;20.05;54.88;101036.66;4146938;28;19925;-67
2023/08/28 00:29:37;;;;;;;;;;;;;;;20.05;54.88;101033.97;4147778;28;19930;-67
2023/08/28 00:31:38;;;;;;;;;;;;;;;20.04;54.64;101032.28;4147968;28;19951;-67
2023/08/28 00:33:40;;;;;;;;;;;;;;;20.04;54.93;101030.47;4148089;28;19933;-67
2023/08/28 00:35:42;;;;;;;;;;;;;;;20.03;54.97;101026.09;4148059;28;19925;-67
2023/08/28 00:37:45;;;;;;;;;;;;;;;20.03;54.72;101027.91;4147022;28;20311;-67
2023/08/28 00:39:46;;;;;;;;;;;;;;;20.02;55.07;101019.03;4146723;28;19925;-67
2023/08/28 00:41:48;;;;;;;;;;;;;;;20.02;54.95;101020.84;4148068;28;19971;-67
2023/08/28 00:43:49;;;;;;;;;;;;;;;20.02;54.69;101018.19;4147538;28;19925;-67
2023/08/28 00:45:51;;;;;;;;;;;;;;;20.01;54.87;101017.31;4147874;28;20295;-68
2023/08/28 00:47:52;;;;;;;;;;;;;;;20.01;54.81;101011.13;4146903;28;20000;-67
2023/08/28 00:49:54;;;;;;;;;;;;;;;20.00;54.90;101010.28;4146836;28;20302;-67
2023/08/28 00:51:57;;;;;;;;;;;;;;;20.00;54.86;101007.63;4148090;28;19925;-67
2023/08/28 00:53:58;;;;;;;;;;;;;;;20.00;54.67;101007.63;4147828;28;19932;-67
2023/08/28 00:56:00;;;;;;;;;;;;;;;19.99;55.07;101003.25;4147749;28;20310;-67
2023/08/28 00:58:02;;;;;;;;;;;;;;;19.98;55.00;100998.00;4146492;28;19926;-67
2023/08/28 01:00:05;;;;;;;;;;;;;;;19.99;55.00;100997.03;4147683;28;19925;-67
2023/08/28 01:02:07;;;;;;;;;;;;;;;19.98;54.84;100996.19;4147907;28;19947;-67
2023/08/28 01:04:08;;;;;;;;;;;;;;;19.97;54.96;100993.66;4147839;28;19932;-67
2023/08/28 01:06:14;;;;;;;;;;;;;;;19.98;54.98;100998.00;4147654;28;19930;-67
2023/08/28 01:08:23;;;;;;;;;;;;;;;19.98;54.94;101000.66;4146789;28;19925;-67
2023/08/28 01:10:34;;;;;;;;;;;;;;;19.98;54.82;100992.66;4147915;28;19925;-67
2023/08/28 01:12:41;;;;;;;;;;;;;;;19.95;54.97;100994.59;4147310;28;19929;-67
2023/08/28 01:14:49;;;;;;;;;;;;;;;19.96;54.67;100992.78;4147717;28;20000;-68
2023/08/28 01:16:53;;;;;;;;;;;;;;;19.97;55.02;101001.66;4146947;28;19965;-67
2023/08/28 01:18:56;;;;;;;;;;;;;;;19.97;54.64;100996.31;4147419;28;19973;-67
2023/08/28 01:20:57;;;;;;;;;;;;;;;19.97;54.88;101007.00;4148706;28;20024;-67
2023/08/28 01:23:18;;;;;;;;;;;;;;;19.97;54.92;100998.97;4150888;28;20024;-67
2023/08/28 01:25:20;;;;;;;;;;;;;;;19.94;54.98;100992.88;4151061;28;19975;-67
2023/08/28 01:27:22;;;;;;;;;;;;;;;19.95;54.76;100997.28;4149717;28;19925;-67
2023/08/28 01:29:24;;;;;;;;;;;;;;;19.95;54.99;100991.06;4150881;28;19961;-67
2023/08/28 01:31:25;;;;;;;;;;;;;;;19.95;55.01;100999.06;4150964;28;19926;-67
2023/08/28 01:33:27;;;;;;;;;;;;;;;19.93;55.03;100993.84;4150696;28;19925;-66
2023/08/28 01:35:31;;;;;;;;;;;;;;;19.93;54.86;100985.84;4150750;28;19925;-67
2023/08/28 01:37:49;;;;;;;;;;;;;;;19.91;54.93;100987.75;4149912;28;19980;-66
2023/08/28 01:39:51;;;;;;;;;;;;;;;19.91;54.96;100986.91;4150607;28;19936;-67
2023/08/28 01:41:55;;;;;;;;;;;;;;;19.91;55.08;100973.56;4150278;28;19940;-67
2023/08/28 01:44:00;;;;;;;;;;;;;;;19.91;55.11;100971.75;4150709;28;19966;-67
2023/08/28 01:46:02;;;;;;;;;;;;;;;19.91;54.78;100974.41;4150805;28;19925;-66
2023/08/28 01:48:06;;;;;;;;;;;;;;;19.90;55.03;100971.84;4148368;28;19925;-67
2023/08/28 01:50:08;;;;;;;;;;;;;;;19.89;54.97;100976.34;4150634;28;19925;-67
2023/08/28 01:52:09;;;;;;;;;;;;;;;19.90;54.82;100977.19;4149440;28;19933;-67
2023/08/28 01:54:11;;;;;;;;;;;;;;;19.89;55.00;100981.69;4150599;28;20366;-67
2023/08/28 01:56:12;;;;;;;;;;;;;;;19.89;54.97;100975.47;4150098;28;19926;-67
2023/08/28 01:58:14;;;;;;;;;;;;;;;19.90;55.20;100979.88;4149365;28;19929;-67
2023/08/28 02:00:16;;;;;;;;;;;;;;;19.89;54.71;100979.03;4150483;28;19925;-67
2023/08/28 02:02:17;;;;;;;;;;;;;;;19.87;55.13;100980.94;4150364;28;19957;-66
2023/08/28 02:04:19;;;;;;;;;;;;;;;19.88;55.09;100969.31;4150248;28;19925;-66
2023/08/28 02:06:20;;;;;;;;;;;;;;;19.88;55.22;100963.09;4150325;28;19979;-66
2023/08/28 02:08:22;;;;;;;;;;;;;;;19.89;55.13;100967.47;4149030;28;19932;-66
2023/08/28 02:10:23;;;;;;;;;;;;;;;19.88;54.72;100965.75;4148933;28;19937;-66
2023/08/28 02:12:25;;;;;;;;;;;;;;;19.88;55.25;100973.78;4150027;28;19925;-66
2023/08/28 02:14:26;;;;;;;;;;;;;;;19.87;54.78;100975.59;4149741;28;19964;-67
2023/08/28 02:16:34;;;;;;;;;;;;;;;19.86;55.12;100973.03;4150145;28;19929;-67
2023/08/28 02:18:36;;;;;;;;;;;;;;;19.86;55.17;100971.22;4149103;28;20020;-67
2023/08/28 02:20:37;;;;;;;;;;;;;;;19.86;55.16;100973.03;4150233;28;19936;-67
2023/08/28 02:22:39;;;;;;;;;;;;;;;19.84;55.07;100970.47;4150025;28;19983;-67
2023/08/28 02:24:40;;;;;;;;;;;;;;;19.86;55.22;100965.03;4149980;28;19948;-66
2023/08/28 02:26:42;;;;;;;;;;;;;;;19.84;54.97;100966.97;4149625;28;20395;-67
2023/08/28 02:28:43;;;;;;;;;;;;;;;19.83;54.84;100968.75;4148944;28;19968;-66
2023/08/28 02:30:45;;;;;;;;;;;;;;;19.84;55.05;100962.47;4148867;28;20322;-67
2023/08/28 02:32:47;;;;;;;;;;;;;;;19.84;55.03;100959.78;4149710;28;19925;-66
2023/08/28 02:34:48;;;;;;;;;;;;;;;19.84;55.01;100962.47;4149816;28;19931;-66
2023/08/28 02:36:50;;;;;;;;;;;;;;;19.83;55.24;100968.75;4149465;28;20292;-66
2023/08/28 02:38:51;;;;;;;;;;;;;;;19.83;55.00;100967.88;4149282;28;19980;-66
2023/08/28 02:40:53;;;;;;;;;;;;;;;19.83;55.18;100966.09;4149538;28;20372;-66
2023/08/28 02:42:55;;;;;;;;;;;;;;;19.83;55.19;100970.53;4149674;28;19929;-66
2023/08/28 02:44:56;;;;;;;;;;;;;;;19.84;55.14;100966.97;4150108;28;19925;-66
2023/08/28 02:46:58;;;;;;;;;;;;;;;19.83;55.22;100970.53;4148991;28;19932;-67
2023/08/28 02:48:59;;;;;;;;;;;;;;;19.82;55.27;100972.38;4149405;28;19925;-67
2023/08/28 02:51:01;;;;;;;;;;;;;;;19.82;55.18;100977.72;4149590;28;19956;-66
2023/08/28 02:53:03;;;;;;;;;;;;;;;19.79;55.13;100973.44;4149434;28;19925;-66
2023/08/28 02:55:05;;;;;;;;;;;;;;;19.82;55.30;100979.50;4149377;28;20409;-66
2023/08/28 02:57:07;;;;;;;;;;;;;;;19.83;55.02;100989.22;4148343;28;20023;-66
2023/08/28 02:59:08;;;;;;;;;;;;;;;19.81;54.81;100984.00;4149328;28;20422;-66
2023/08/28 03:01:10;;;;;;;;;;;;;;;19.82;55.14;100984.84;4149610;28;20387;-66
2023/08/28 03:03:11;;;;;;;;;;;;;;;19.82;55.18;100982.19;4149259;28;20016;-66
2023/08/28 03:05:13;;;;;;;;;;;;;;;19.80;55.35;100983.13;4149249;28;20016;-66
2023/08/28 03:07:15;;;;;;;;;;;;;;;19.81;54.86;100986.69;4148622;28;19930;-66
2023/08/28 03:09:16;;;;;;;;;;;;;;;19.80;55.03;100980.47;4148866;28;20040;-67
2023/08/28 03:11:18;;;;;;;;;;;;;;;19.78;55.44;100984.22;4149396;28;19980;-66
2023/08/28 03:13:20;;;;;;;;;;;;;;;19.80;54.97;100976.97;4148959;28;19929;-66
2023/08/28 03:15:21;;;;;;;;;;;;;;;19.80;55.21;100985.81;4148057;28;19933;-66
2023/08/28 03:17:23;;;;;;;;;;;;;;;19.79;54.96;100992.13;4148349;28;20012;-67
2023/08/28 03:19:24;;;;;;;;;;;;;;;19.77;55.05;100983.38;4149133;28;20017;-66
2023/08/28 03:21:26;;;;;;;;;;;;;;;19.77;54.97;100990.53;4149208;28;20395;-67
2023/08/28 03:23:28;;;;;;;;;;;;;;;19.77;55.25;100988.72;4148780;28;20259;-66
2023/08/28 03:25:29;;;;;;;;;;;;;;;19.77;55.39;100998.53;4149245;28;20100;-67
2023/08/28 03:27:31;;;;;;;;;;;;;;;19.77;55.05;100990.53;4148029;28;20308;-67
2023/08/28 03:29:32;;;;;;;;;;;;;;;19.76;55.45;100994.16;4148981;28;19934;-66
2023/08/28 03:31:34;;;;;;;;;;;;;;;19.76;55.34;100986.16;4148992;28;20020;-66
2023/08/28 03:33:36;;;;;;;;;;;;;;;19.75;55.19;100995.13;4149019;28;20359;-67
2023/08/28 03:35:37;;;;;;;;;;;;;;;19.74;55.32;100996.91;4148929;28;20356;-66
2023/08/28 03:37:39;;;;;;;;;;;;;;;19.75;55.01;100998.63;4147635;28;20437;-66
2023/08/28 03:39:40;;;;;;;;;;;;;;;19.67;55.32;100984.97;4148654;28;19936;-67
2023/08/28 03:41:42;;;;;;;;;;;;;;;19.76;55.29;100999.50;4148804;28;19925;-66
2023/08/28 03:43:43;;;;;;;;;;;;;;;19.75;55.37;101003.13;4148089;28;19968;-66
2023/08/28 03:45:45;;;;;;;;;;;;;;;19.75;55.06;101008.47;4148523;28;19936;-67
2023/08/28 03:47:46;;;;;;;;;;;;;;;19.76;55.46;101007.50;4147689;28;19930;-67
2023/08/28 03:49:48;;;;;;;;;;;;;;;19.75;55.39;101008.47;4148711;28;19953;-67
2023/08/28 03:51:49;;;;;;;;;;;;;;;19.75;55.10;101008.47;4148836;28;19972;-67
2023/08/28 03:53:51;;;;;;;;;;;;;;;19.73;55.02;101000.56;4148424;28;19953;-67
2023/08/28 03:55:53;;;;;;;;;;;;;;;19.72;55.41;101001.53;4148714;28;20008;-67
2023/08/28 03:57:55;;;;;;;;;;;;;;;19.74;55.41;101006.75;4147425;28;19930;-67
2023/08/28 03:59:57;;;;;;;;;;;;;;;19.73;55.49;101008.56;4148645;28;19935;-67
2023/08/28 04:01:59;;;;;;;;;;;;;;;19.73;55.54;101008.56;4148648;28;19932;-66
2023/08/28 04:04:01;;;;;;;;;;;;;;;19.72;55.49;101012.19;4148712;28;19926;-67
2023/08/28 04:06:02;;;;;;;;;;;;;;;19.74;55.25;101014.75;4148537;28;20298;-67
2023/08/28 04:08:04;;;;;;;;;;;;;;;19.73;55.34;101018.38;4146023;28;20417;-67
2023/08/28 04:10:06;;;;;;;;;;;;;;;19.72;55.55;101014.88;4148344;28;19957;-67
2023/08/28 04:12:08;;;;;;;;;;;;;;;19.72;55.57;101017.53;4148263;28;19929;-67
2023/08/28 04:14:09;;;;;;;;;;;;;;;19.73;55.40;101029.06;4148047;28;19936;-67
2023/08/28 04:16:11;;;;;;;;;;;;;;;19.72;55.42;101022.88;4148171;28;19926;-67
2023/08/28 04:18:12;;;;;;;;;;;;;;;19.70;55.33;101022.13;4147411;28;20005;-66
2023/08/28 04:20:15;;;;;;;;;;;;;;;19.70;55.60;101014.13;4148168;28;20318;-67
2023/08/28 04:22:19;;;;;;;;;;;;;;;19.70;55.47;101010.59;4146962;28;19965;-66
2023/08/28 04:24:21;;;;;;;;;;;;;;;19.69;55.62;101014.22;4148306;28;19925;-67
2023/08/28 04:26:24;;;;;;;;;;;;;;;19.68;55.26;101013.34;4148199;28;19926;-66
2023/08/28 04:28:26;;;;;;;;;;;;;;;19.69;55.74;101012.41;4147225;28;19930;-67
2023/08/28 04:30:28;;;;;;;;;;;;;;;19.69;55.23;101006.22;4148300;28;20298;-67
2023/08/28 04:32:29;;;;;;;;;;;;;;;19.68;55.46;101009.84;4148107;28;19933;-67
2023/08/28 04:34:31;;;;;;;;;;;;;;;19.68;55.58;101015.19;4148096;28;19960;-67
2023/08/28 04:36:33;;;;;;;;;;;;;;;19.67;55.36;101006.31;4147706;28;19925;-67
2023/08/28 04:38:34;;;;;;;;;;;;;;;19.66;55.36;101009.97;4146722;28;20024;-67
2023/08/28 04:40:36;;;;;;;;;;;;;;;19.67;55.72;101000.13;4148075;28;20364;-66
2023/08/28 04:42:37;;;;;;;;;;;;;;;19.66;55.67;101003.75;4147789;28;19929;-67
2023/08/28 04:44:39;;;;;;;;;;;;;;;19.64;55.66;101004.72;4148038;28;19929;-66
2023/08/28 04:46:40;;;;;;;;;;;;;;;19.64;55.63;101004.72;4146850;28;20000;-67
2023/08/28 04:48:42;;;;;;;;;;;;;;;19.65;55.51;101005.59;4146947;28;19926;-67
2023/08/28 04:50:43;;;;;;;;;;;;;;;19.64;55.61;100999.38;4147661;28;19971;-67
2023/08/28 04:52:45;;;;;;;;;;;;;;;19.64;55.44;100999.38;4148035;28;19925;-67
2023/08/28 04:54:46;;;;;;;;;;;;;;;19.63;55.44;100995.00;4147609;28;19933;-67
2023/08/28 04:56:48;;;;;;;;;;;;;;;19.66;55.54;100987.75;4147784;28;19926;-67
2023/08/28 04:58:51;;;;;;;;;;;;;;;19.64;55.50;100990.53;4146879;28;19929;-67
2023/08/28 05:00:52;;;;;;;;;;;;;;;19.64;55.57;100988.69;4147679;28;19972;-67
2023/08/28 05:02:54;;;;;;;;;;;;;;;19.64;55.59;100987.88;4146621;28;19945;-67
2023/08/28 05:04:56;;;;;;;;;;;;;;;19.65;55.78;100978.91;4147525;28;19936;-67
2023/08/28 05:06:57;;;;;;;;;;;;;;;19.64;55.54;100983.38;4147813;28;19925;-67
2023/08/28 05:08:59;;;;;;;;;;;;;;;19.64;55.73;100988.69;4146796;28;19926;-67
2023/08/28 05:11:03;;;;;;;;;;;;;;;19.65;55.66;100986.91;4147695;28;19932;-67
2023/08/28 05:13:04;;;;;;;;;;;;;;;19.64;55.46;100985.19;4146443;28;19925;-67
2023/08/28 05:15:06;;;;;;;;;;;;;;;19.63;55.33;100987.00;4147676;28;20466;-67
2023/08/28 05:17:08;;;;;;;;;;;;;;;19.63;55.59;100986.16;4147384;28;20016;-67
2023/08/28 05:19:09;;;;;;;;;;;;;;;19.64;55.47;100982.53;4146463;28;19927;-67
2023/08/28 05:21:11;;;;;;;;;;;;;;;19.62;55.35;100979.97;4147713;28;20036;-67
2023/08/28 05:23:12;;;;;;;;;;;;;;;19.64;55.41;100987.88;4147606;28;19969;-67
2023/08/28 05:25:14;;;;;;;;;;;;;;;19.62;55.78;100985.31;4147603;28;20016;-67
2023/08/28 05:27:16;;;;;;;;;;;;;;;19.64;55.64;100995.88;4147653;28;19929;-67
2023/08/28 05:29:17;;;;;;;;;;;;;;;19.63;55.80;100999.50;4146514;28;20374;-67
2023/08/28 05:31:18;;;;;;;;;;;;;;;19.62;55.75;101001.31;4147648;28;20033;-67
2023/08/28 05:33:20;;;;;;;;;;;;;;;19.63;55.54;101003.00;4147557;28;19972;-67
2023/08/28 05:35:22;;;;;;;;;;;;;;;19.63;55.64;101004.81;4147002;28;19972;-67
2023/08/28 05:37:24;;;;;;;;;;;;;;;19.62;55.86;101005.78;4147579;28;20029;-67
2023/08/28 05:39:26;;;;;;;;;;;;;;;19.61;55.61;100996.94;4147052;28;19930;-67
2023/08/28 05:41:27;;;;;;;;;;;;;;;19.62;55.56;100993.31;4147521;28;19956;-67
2023/08/28 05:43:29;;;;;;;;;;;;;;;19.62;55.44;100992.44;4147528;28;19926;-67
2023/08/28 05:45:30;;;;;;;;;;;;;;;19.62;55.83;100990.66;4147715;28;19930;-67
2023/08/28 05:47:33;;;;;;;;;;;;;;;19.61;55.49;100988.06;4147121;28;19972;-67
2023/08/28 05:49:34;;;;;;;;;;;;;;;19.60;55.74;100989.88;4146842;28;19991;-68
2023/08/28 05:51:36;;;;;;;;;;;;;;;19.60;55.68;100992.56;4147344;28;19929;-67
2023/08/28 05:53:37;;;;;;;;;;;;;;;19.59;55.75;100982.84;4147485;28;19996;-67
2023/08/28 05:55:40;;;;;;;;;;;;;;;19.60;55.46;100979.22;4147451;28;20379;-67
2023/08/28 05:57:42;;;;;;;;;;;;;;;19.60;55.88;100983.69;4146560;28;19925;-67
2023/08/28 05:59:43;;;;;;;;;;;;;;;19.60;55.49;100973.88;4147101;28;20403;-67
2023/08/28 06:01:47;;;;;;;;;;;;;;;19.61;55.62;100985.38;4147425;28;19925;-67
2023/08/28 06:03:50;;;;;;;;;;;;;;;19.61;55.69;100986.25;4147130;28;19925;-65
2023/08/28 06:05:52;;;;;;;;;;;;;;;19.61;55.73;100988.94;4147435;28;19931;-67
2023/08/28 06:07:53;;;;;;;;;;;;;;;19.61;55.73;100980.06;4148949;28;20044;-67
2023/08/28 06:09:55;;;;;;;;;;;;;;;19.61;55.46;100975.59;4150145;28;20357;-67
2023/08/28 06:11:57;;;;;;;;;;;;;;;19.61;55.63;100975.59;4150003;28;19929;-67
2023/08/28 06:13:58;;;;;;;;;;;;;;;19.63;55.75;100972.81;4149983;28;19961;-67
2023/08/28 06:16:00;;;;;;;;;;;;;;;19.62;55.73;100971.97;4149921;28;19968;-67
2023/08/28 06:18:02;;;;;;;;;;;;;;;19.63;55.51;100972.81;4148826;28;20091;-67
2023/08/28 06:20:04;;;;;;;;;;;;;;;19.62;55.46;100971.97;4150032;28;20023;-67
2023/08/28 06:22:06;;;;;;;;;;;;;;;19.62;55.35;100971.09;4150175;28;19971;-67
2023/08/28 06:24:07;;;;;;;;;;;;;;;19.63;55.44;100970.13;4148738;28;19925;-67
2023/08/28 06:26:09;;;;;;;;;;;;;;;19.64;55.51;100974.53;4150001;28;19960;-67
2023/08/28 06:28:10;;;;;;;;;;;;;;;19.62;55.68;100974.63;4149204;28;20482;-67
2023/08/28 06:30:12;;;;;;;;;;;;;;;19.63;55.81;100986.16;4149757;28;19926;-67
2023/08/28 06:32:13;;;;;;;;;;;;;;;19.63;55.50;100978.97;4148907;28;19964;-67
2023/08/28 06:34:15;;;;;;;;;;;;;;;19.61;55.72;100980.94;4149592;28;19963;-67
2023/08/28 06:36:16;;;;;;;;;;;;;;;19.64;55.68;100979.84;4149748;28;19929;-67
2023/08/28 06:38:18;;;;;;;;;;;;;;;19.64;55.70;100979.84;4147630;28;20339;-67
2023/08/28 06:40:19;;;;;;;;;;;;;;;19.65;55.32;100976.22;4149900;28;19925;-67
2023/08/28 06:42:22;;;;;;;;;;;;;;;19.64;55.67;100978.03;4149957;28;19949;-67
2023/08/28 06:44:24;;;;;;;;;;;;;;;19.65;55.39;100976.22;4148631;28;20374;-66
2023/08/28 06:46:26;;;;;;;;;;;;;;;19.64;55.46;100980.69;4149351;28;20012;-67
2023/08/28 06:48:28;;;;;;;;;;;;;;;19.64;55.66;100975.38;4148670;28;20358;-66
2023/08/28 06:50:29;;;;;;;;;;;;;;;19.64;55.58;100967.34;4149820;28;19932;-67
2023/08/28 06:52:31;;;;;;;;;;;;;;;19.66;55.51;100971.75;4149793;28;19933;-67
2023/08/28 06:54:33;;;;;;;;;;;;;;;19.66;55.57;100975.28;4148641;28;20288;-66
2023/08/28 06:56:52;;;;;;;;;;;;;;;19.67;55.43;100979.63;4149464;28;20019;-67
2023/08/28 06:58:53;;;;;;;;;;;;;;;19.66;55.52;100972.59;4148342;28;20200;-67
2023/08/28 07:00:55;;;;;;;;;;;;;;;19.67;55.67;100968.13;4149293;28;19957;-67
2023/08/28 07:02:57;;;;;;;;;;;;;;;19.67;55.69;100968.94;4149560;28;19937;-66
2023/08/28 07:04:59;;;;;;;;;;;;;;;19.69;55.69;100976.88;4148144;28;19965;-67
2023/08/28 07:07:00;;;;;;;;;;;;;;;19.69;55.74;100974.19;4149508;28;19925;-67
2023/08/28 07:09:02;;;;;;;;;;;;;;;19.69;55.64;100968.88;4148271;28;19926;-66
2023/08/28 07:11:03;;;;;;;;;;;;;;;19.69;55.65;100971.53;4149101;28;19925;-67
2023/08/28 07:13:05;;;;;;;;;;;;;;;19.68;55.31;100954.66;4149069;28;19969;-67
2023/08/28 07:15:10;;;;;;;;;;;;;;;19.70;55.18;100962.56;4148855;28;19929;-67
2023/08/28 07:17:11;;;;;;;;;;;;;;;19.71;55.47;100956.25;4149145;28;19926;-67
2023/08/28 07:19:13;;;;;;;;;;;;;;;19.71;55.30;100957.13;4147118;28;19926;-67
2023/08/28 07:21:15;;;;;;;;;;;;;;;19.71;55.46;100959.78;4148012;28;19926;-67
2023/08/28 07:23:17;;;;;;;;;;;;;;;19.71;55.57;100956.25;4149064;28;19929;-66
2023/08/28 07:25:21;;;;;;;;;;;;;;;19.71;55.47;100959.78;4149241;28;19925;-67
2023/08/28 07:27:23;;;;;;;;;;;;;;;19.72;55.37;100958.84;4149013;28;19931;-67
2023/08/28 07:29:25;;;;;;;;;;;;;;;19.72;55.68;100961.50;4144097;28;19934;-68
2023/08/28 07:31:26;;;;;;;;;;;;;;;19.81;55.33;100960.00;4146665;28;20442;-61
2023/08/28 07:33:28;;;;;;;;;;;;;;;19.88;55.15;100963.09;4148048;28;20463;-61
2023/08/28 07:35:34;;;;;;;;;;;;;;;19.93;54.93;100963.63;4147841;28;19925;-61
2023/08/28 07:37:36;;;;;;;;;;;;;;;19.96;55.16;100955.41;4148311;28;19929;-61
2023/08/28 07:39:38;;;;;;;;;;;;;;;20.01;55.01;100955.06;4139016;28;19977;-62
2023/08/28 07:41:39;;;;;;;;;;;;;;;19.93;55.11;100964.47;4144790;28;19925;-62
2023/08/28 07:43:42;;;;;;;;;;;;;;;19.88;55.17;100961.28;4140492;28;19926;-63
2023/08/28 07:45:44;;;;;;;;;;;;;;;19.85;55.44;100949.97;4140035;28;19961;-62
2023/08/28 07:47:45;;;;;;;;;;;;;;;19.83;55.37;100954.53;4135586;28;20004;-62
2023/08/28 07:49:47;;;;;;;;;;;;;;;19.81;55.29;100954.66;4131529;28;20347;-62
2023/08/28 07:51:49;;;;;;;;;;;;;;;19.80;55.36;100953.78;4132358;28;19926;-62
2023/08/28 07:53:50;;;;;;;;;;;;;;;19.80;55.41;100963.63;4132366;28;19930;-63
2023/08/28 07:55:52;;;;;;;;;;;;;;;19.80;55.82;100958.28;4132513;28;19949;-63
2023/08/28 07:57:53;;;;;;;;;;;;;;;19.78;55.84;100966.41;4132207;28;19936;-64
2023/08/28 07:59:55;;;;;;;;;;;;;;;19.78;55.56;100974.41;4131351;28;20128;-62
2023/08/28 08:02:00;;;;;;;;;;;;;;;19.77;55.95;100969.19;4132465;28;19933;-63
2023/08/28 08:04:01;;;;;;;;;;;;;;;19.76;55.68;100968.31;4132224;28;19972;-63
2023/08/28 08:06:03;;;;;;;;;;;;;;;19.76;55.80;100962.97;4132317;28;19926;-63
2023/08/28 08:08:05;;;;;;;;;;;;;;;19.77;55.74;100970.03;4131573;28;20020;-63
2023/08/28 08:10:10;;;;;;;;;;;;;;;19.78;55.83;100970.88;4134664;28;19926;-62
2023/08/28 08:12:12;;;;;;;;;;;;;;;19.79;55.82;100972.56;4132026;28;19926;-61
2023/08/28 08:14:13;;;;;;;;;;;;;;;19.78;55.75;100968.19;4131264;28;19968;-62
2023/08/28 08:16:15;;;;;;;;;;;;;;;19.78;55.69;100976.22;4147577;28;20326;-62
2023/08/28 08:18:17;;;;;;;;;;;;;;;19.79;55.69;100976.13;4147241;28;19930;-64
2023/08/28 08:20:20;;;;;;;;;;;;;;;19.78;55.74;100977.06;4148089;28;19936;-61
2023/08/28 08:22:21;;;;;;;;;;;;;;;19.79;55.78;100977.91;4148412;28;19931;-62
2023/08/28 08:24:23;;;;;;;;;;;;;;;19.77;55.97;100972.69;4148059;28;19932;-62
2023/08/28 08:26:24;;;;;;;;;;;;;;;19.79;55.64;100978.78;4148190;28;19964;-62
2023/08/28 08:28:26;;;;;;;;;;;;;;;19.82;55.42;100971.50;4147019;28;20247;-62
2023/08/28 08:30:27;;;;;;;;;;;;;;;19.80;55.65;100977.81;4147792;28;20263;-62
2023/08/28 08:32:29;;;;;;;;;;;;;;;19.80;55.90;100979.63;4147994;28;19926;-61
2023/08/28 08:34:32;;;;;;;;;;;;;;;19.82;55.67;100991.06;4148290;28;19926;-61
2023/08/28 08:36:33;;;;;;;;;;;;;;;19.83;55.78;100986.56;4148275;28;19948;-62
2023/08/28 08:38:35;;;;;;;;;;;;;;;19.85;55.65;100988.19;4147060;28;19948;-62
2023/08/28 08:40:39;;;;;;;;;;;;;;;19.85;55.69;100987.34;4147886;28;19956;-62
2023/08/28 08:42:41;;;;;;;;;;;;;;;19.86;55.51;100989.91;4147686;28;20422;-62
2023/08/28 08:44:42;;;;;;;;;;;;;;;19.87;55.74;100978.28;4147913;28;20418;-62
2023/08/28 08:46:47;;;;;;;;;;;;;;;19.87;55.32;100983.59;4147670;28;19984;-61
2023/08/28 08:48:49;;;;;;;;;;;;;;;19.88;55.40;100976.44;4146901;28;19926;-62
2023/08/28 08:50:54;;;;;;;;;;;;;;;19.90;55.57;100987.88;4147625;28;19960;-62
2023/08/28 08:52:57;;;;;;;;;;;;;;;19.93;55.15;100974.31;4147934;28;19926;-62
2023/08/28 08:55:08;;;;;;;;;;;;;;;19.94;55.45;100973.38;4147738;28;19933;-62
2023/08/28 08:57:33;;;;;;;;;;;;;;;19.97;55.44;100977.63;4147379;28;19930;-62
2023/08/28 08:59:34;;;;;;;;;;;;;;;19.98;55.15;100988.19;4138830;28;20008;-62
2023/08/28 09:01:37;;;;;;;;;;;;;;;19.97;55.37;100981.13;4146649;28;20017;-62
2023/08/28 09:03:39;;;;;;;;;;;;;;;19.97;55.10;100985.63;4148052;28;19930;-62
2023/08/28 09:05:41;;;;;;;;;;;;;;;19.98;55.22;100987.31;4146378;28;19937;-62
2023/08/28 09:07:43;;;;;;;;;;;;;;;19.96;55.39;100987.44;4147913;28;19972;-61
2023/08/28 09:09:45;;;;;;;;;;;;;;;19.97;55.27;100986.47;4146728;28;20388;-62
2023/08/28 09:11:48;;;;;;;;;;;;;;;19.97;55.31;100983.81;4147324;28;19953;-62
2023/08/28 09:13:51;;;;;;;;;;;;;;;19.97;55.21;100989.16;4147647;28;20071;-62
2023/08/28 09:15:52;;;;;;;;;;;;;;;19.97;55.39;100980.28;4147735;28;19933;-62
2023/08/28 09:17:54;;;;;;;;;;;;;;;19.96;55.21;100979.44;4147779;28;20359;-61
2023/08/28 09:19:56;;;;;;;;;;;;;;;19.97;55.08;100985.63;4147029;28;19987;-61
2023/08/28 09:21:57;;;;;;;;;;;;;;;19.97;55.37;100989.16;4147662;28;19932;-62
2023/08/28 09:23:59;;;;;;;;;;;;;;;19.97;55.18;100982.97;4147724;28;19926;-61
2023/08/28 09:26:02;;;;;;;;;;;;;;;19.97;55.04;100969.63;4147020;28;19930;-62
2023/08/28 09:28:04;;;;;;;;;;;;;;;19.97;55.36;100975.78;4147583;28;19933;-62
2023/08/28 09:30:07;;;;;;;;;;;;;;;19.97;55.52;100966.94;4146568;28;20039;-62
2023/08/28 09:32:08;;;;;;;;;;;;;;;19.97;55.22;100967.78;4147598;28;19926;-62
2023/08/28 09:34:10;;;;;;;;;;;;;;;19.97;55.25;100970.47;4147637;28;19926;-61
2023/08/28 09:36:16;;;;;;;;;;;;;;;19.98;55.42;100964.16;4147493;28;20012;-61
2023/08/28 09:38:18;;;;;;;;;;;;;;;20.00;55.12;100969.38;4146731;28;19931;-62
2023/08/28 09:40:25;;;;;;;;;;;;;;;20.00;54.96;100975.59;4146724;28;20042;-62
2023/08/28 09:42:27;;;;;;;;;;;;;;;20.01;55.34;100974.59;4148391;28;19929;-61
2023/08/28 09:44:28;;;;;;;;;;;;;;;20.03;55.28;100975.34;4150540;28;19925;-62
2023/08/28 09:46:30;;;;;;;;;;;;;;;20.04;55.14;100974.41;4149438;28;20012;-61
2023/08/28 09:48:32;;;;;;;;;;;;;;;20.04;54.99;100968.22;4149821;28;19987;-62
2023/08/28 09:50:34;;;;;;;;;;;;;;;20.03;55.25;100971.84;4150412;28;19925;-61
2023/08/28 09:52:36;;;;;;;;;;;;;;;20.01;55.19;100979.94;4150597;28;20352;-61
2023/08/28 09:54:37;;;;;;;;;;;;;;;20.00;55.19;100980.94;4150294;28;19925;-61
2023/08/28 09:56:39;;;;;;;;;;;;;;;19.99;55.33;100981.03;4150491;28;19948;-61
2023/08/28 09:58:46;;;;;;;;;;;;;;;19.97;55.21;100986.47;4149490;28;19936;-61
2023/08/28 10:00:48;;;;;;;;;;;;;;;19.94;55.50;100981.38;4150449;28;19925;-62
2023/08/28 10:02:50;;;;;;;;;;;;;;;19.93;55.39;100991.19;4150177;28;19926;-61
2023/08/28 10:04:52;;;;;;;;;;;;;;;19.92;55.13;100989.47;4150365;28;20020;-61
2023/08/28 10:06:57;;;;;;;;;;;;;;;19.92;55.47;100985.97;4150167;28;19926;-61
2023/08/28 10:09:00;;;;;;;;;;;;;;;19.92;55.38;100985.97;4149435;28;19926;-62
2023/08/28 10:11:02;;;;;;;;;;;;;;;19.92;55.47;100980.63;4149066;28;19960;-62
2023/08/28 10:13:05;;;;;;;;;;;;;;;19.92;55.64;100980.63;4150008;28;19925;-62
2023/08/28 10:15:07;;;;;;;;;;;;;;;19.82;55.24;100961.69;4149953;28;19929;-62
2023/08/28 10:17:12;;;;;;;;;;;;;;;19.92;55.12;100986.78;4150319;28;19926;-61
2023/08/28 10:19:19;;;;;;;;;;;;;;;19.92;55.24;100992.13;4149050;28;19979;-61
2023/08/28 10:21:21;;;;;;;;;;;;;;;19.92;55.60;100989.47;4150200;28;19972;-62
2023/08/28 10:23:23;;;;;;;;;;;;;;;19.93;55.18;100988.50;4150124;28;19933;-62
2023/08/28 10:25:27;;;;;;;;;;;;;;;19.93;55.41;100996.50;4149667;28;19968;-61
2023/08/28 10:27:29;;;;;;;;;;;;;;;19.95;55.45;100983.94;4150108;28;19925;-61